createdAt,value
2017-08-19T00:01:37.787Z,10.27
2017-08-19T00:04:05.260Z,11.40
2017-08-19T00:06:32.739Z,10.50
2017-08-19T00:09:00.221Z,11.40
2017-08-19T00:11:27.693Z,11.80
2017-08-19T00:13:55.164Z,12.33
2017-08-19T00:16:22.628Z,12.90
2017-08-19T00:18:50.106Z,11.30
2017-08-19T00:21:17.909Z,13.10
2017-08-19T00:23:45.378Z,13.87
2017-08-19T00:26:12.853Z,13.90
2017-08-19T00:28:40.332Z,13.13
2017-08-19T00:31:07.808Z,12.67
2017-08-19T00:33:35.291Z,14.33
2017-08-19T00:36:03.745Z,14.40
2017-08-19T00:38:31.224Z,13.00
2017-08-19T00:40:58.688Z,13.47
2017-08-19T00:43:26.175Z,12.20
2017-08-19T00:45:53.647Z,12.50
2017-08-19T00:48:21.140Z,10.80
2017-08-19T00:50:48.602Z,11.90
2017-08-19T00:53:16.063Z,12.27
2017-08-19T00:55:43.545Z,14.80
2017-08-19T00:58:11.016Z,13.10
2017-08-19T01:00:38.491Z,10.57
2017-08-19T01:03:05.972Z,10.07
2017-08-19T01:05:33.451Z,11.67
2017-08-19T01:08:00.940Z,7.73
2017-08-19T01:10:28.411Z,6.50
2017-08-19T01:12:55.871Z,5.50
2017-08-19T01:15:23.349Z,6.07
2017-08-19T01:17:50.808Z,6.43
2017-08-19T01:20:18.286Z,6.30
2017-08-19T01:22:45.762Z,6.07
2017-08-19T01:25:25.011Z,6.67
2017-08-19T01:27:52.472Z,5.43
2017-08-19T01:30:19.944Z,4.90
2017-08-19T01:32:47.404Z,5.47
2017-08-19T01:35:14.892Z,5.70
2017-08-19T01:37:42.363Z,6.70
2017-08-19T01:40:09.844Z,6.00
2017-08-19T01:42:37.314Z,6.73
2017-08-19T01:45:04.776Z,7.07
2017-08-19T01:47:32.251Z,6.20
2017-08-19T01:49:59.715Z,7.00
2017-08-19T01:52:27.191Z,8.30
2017-08-19T01:54:54.653Z,8.50
2017-08-19T01:57:22.127Z,8.87
2017-08-19T01:59:49.607Z,9.13
2017-08-19T02:02:17.076Z,12.33
2017-08-19T02:04:44.539Z,9.83
2017-08-19T02:07:12.017Z,10.10
2017-08-19T02:09:39.478Z,10.07
2017-08-19T02:12:06.947Z,9.30
2017-08-19T02:14:34.416Z,9.23
2017-08-19T02:17:01.891Z,9.93
2017-08-19T02:19:29.352Z,8.13
2017-08-19T02:21:56.819Z,7.67
2017-08-19T02:24:24.288Z,9.23
2017-08-19T02:26:51.760Z,8.13
2017-08-19T02:29:19.233Z,8.80
2017-08-19T02:31:46.698Z,8.60
2017-08-19T02:34:14.168Z,8.50
2017-08-19T02:36:41.633Z,9.07
2017-08-19T02:39:09.102Z,9.00
2017-08-19T02:41:36.567Z,8.40
2017-08-19T02:44:04.039Z,8.63
2017-08-19T02:46:31.529Z,8.60
2017-08-19T02:49:12.433Z,9.00
2017-08-19T02:51:39.900Z,7.87
2017-08-19T02:54:07.385Z,7.97
2017-08-19T02:56:35.544Z,7.40
2017-08-19T02:59:03.023Z,7.70
2017-08-19T03:01:30.491Z,6.30
2017-08-19T03:03:58.023Z,7.17
2017-08-19T03:06:25.483Z,7.90
2017-08-19T03:08:52.964Z,8.03
2017-08-19T03:11:20.429Z,7.53
2017-08-19T03:13:47.907Z,8.47
2017-08-19T03:16:15.380Z,6.80
2017-08-19T03:18:42.855Z,5.80
2017-08-19T03:21:10.316Z,5.60
2017-08-19T03:23:37.798Z,6.33
2017-08-19T03:26:05.261Z,5.70
2017-08-19T03:28:32.741Z,7.00
2017-08-19T03:31:00.200Z,6.00
2017-08-19T03:33:27.686Z,5.73
2017-08-19T03:35:55.162Z,5.57
2017-08-19T03:38:22.630Z,5.67
2017-08-19T03:40:50.104Z,5.50
2017-08-19T03:43:17.569Z,5.70
2017-08-19T03:45:45.055Z,6.13
2017-08-19T03:48:12.515Z,5.47
2017-08-19T03:50:39.992Z,6.07
2017-08-19T03:53:07.459Z,5.67
2017-08-19T03:55:34.926Z,5.80
2017-08-19T03:58:02.391Z,5.17
2017-08-19T04:00:29.872Z,5.20
2017-08-19T04:02:57.328Z,6.30
2017-08-19T04:05:24.802Z,5.40
2017-08-19T04:07:52.267Z,6.73
2017-08-19T04:10:19.741Z,6.70
2017-08-19T04:12:47.216Z,6.13
2017-08-19T04:15:14.712Z,6.57
2017-08-19T04:17:42.170Z,5.83
2017-08-19T04:20:09.643Z,7.40
2017-08-19T04:22:37.099Z,5.90
2017-08-19T04:25:04.582Z,8.00
2017-08-19T04:27:32.043Z,6.27
2017-08-19T04:29:59.503Z,7.80
2017-08-19T04:32:26.980Z,6.70
2017-08-19T04:34:54.445Z,6.73
2017-08-19T04:37:21.920Z,7.60
2017-08-19T04:39:49.384Z,6.23
2017-08-19T04:42:16.847Z,6.90
2017-08-19T04:44:44.315Z,6.47
2017-08-19T04:47:11.791Z,6.60
2017-08-19T04:49:39.248Z,6.30
2017-08-19T04:52:06.736Z,6.03
2017-08-19T04:54:34.214Z,7.47
2017-08-19T04:57:01.690Z,7.13
2017-08-19T04:59:29.156Z,7.77
2017-08-19T05:01:56.628Z,8.23
2017-08-19T05:04:24.090Z,6.90
2017-08-19T05:06:51.559Z,6.53
2017-08-19T05:09:19.044Z,7.27
2017-08-19T05:11:46.528Z,8.00
2017-08-19T05:14:13.995Z,7.23
2017-08-19T05:16:41.459Z,8.10
2017-08-19T05:19:08.938Z,7.00
2017-08-19T05:21:36.402Z,5.70
2017-08-19T05:24:03.870Z,6.60
2017-08-19T05:26:31.335Z,5.73
2017-08-19T05:28:58.814Z,6.23
2017-08-19T05:31:26.282Z,6.37
2017-08-19T05:33:53.752Z,5.00
2017-08-19T05:36:21.218Z,5.83
2017-08-19T05:38:48.687Z,5.07
2017-08-19T05:41:16.153Z,5.10
2017-08-19T05:43:43.622Z,4.83
2017-08-19T05:46:11.085Z,4.13
2017-08-19T05:48:38.549Z,4.10
2017-08-19T05:51:06.012Z,5.03
2017-08-19T05:53:33.489Z,4.03
2017-08-19T05:56:00.953Z,4.77
2017-08-19T05:58:28.419Z,4.80
2017-08-19T06:00:55.883Z,4.10
2017-08-19T06:03:23.368Z,4.60
2017-08-19T06:05:50.828Z,5.27
2017-08-19T06:08:18.296Z,5.10
2017-08-19T06:10:45.763Z,4.70
2017-08-19T06:13:13.223Z,6.77
2017-08-19T06:15:40.696Z,4.50
2017-08-19T06:18:08.159Z,6.00
2017-08-19T06:20:35.636Z,5.73
2017-08-19T06:23:03.100Z,5.20
2017-08-19T06:25:30.577Z,6.03
2017-08-19T06:27:58.044Z,4.70
2017-08-19T06:30:25.523Z,5.47
2017-08-19T06:32:52.984Z,5.00
2017-08-19T06:35:20.448Z,4.80
2017-08-19T06:37:47.923Z,4.40
2017-08-19T06:40:15.397Z,4.23
2017-08-19T06:42:42.862Z,4.80
2017-08-19T06:45:10.348Z,4.20
2017-08-19T06:47:37.822Z,4.23
2017-08-19T06:50:05.293Z,3.60
2017-08-19T06:52:32.743Z,4.57
2017-08-19T06:55:00.219Z,3.90
2017-08-19T06:57:27.676Z,3.40
2017-08-19T06:59:55.147Z,4.50
2017-08-19T07:02:22.612Z,3.77
2017-08-19T07:04:50.096Z,3.50
2017-08-19T07:07:17.548Z,3.87
2017-08-19T07:09:45.010Z,4.00
2017-08-19T07:12:12.488Z,3.50
2017-08-19T07:14:39.953Z,3.90
2017-08-19T07:17:07.426Z,3.33
2017-08-19T07:19:34.894Z,3.70
2017-08-19T07:22:02.360Z,3.80
2017-08-19T07:24:29.820Z,3.97
2017-08-19T07:26:57.318Z,4.33
2017-08-19T07:29:24.788Z,4.10
2017-08-19T07:31:52.265Z,3.40
2017-08-19T07:34:19.720Z,3.60
2017-08-19T07:36:47.194Z,3.80
2017-08-19T07:39:14.656Z,3.53
2017-08-19T07:41:42.131Z,3.93
2017-08-19T07:44:09.594Z,4.27
2017-08-19T07:46:37.077Z,3.73
2017-08-19T07:49:04.558Z,3.10
2017-08-19T07:51:32.032Z,3.20
2017-08-19T07:53:59.499Z,3.30
2017-08-19T07:56:26.959Z,3.77
2017-08-19T07:58:54.431Z,3.43
2017-08-19T08:01:21.894Z,3.00
2017-08-19T08:03:49.363Z,3.20
2017-08-19T08:06:16.835Z,3.27
2017-08-19T08:08:44.515Z,3.53
2017-08-19T08:11:11.972Z,2.80
2017-08-19T08:13:39.435Z,2.93
2017-08-19T08:16:06.901Z,2.63
2017-08-19T08:18:34.382Z,3.30
2017-08-19T08:21:01.847Z,2.80
2017-08-19T08:23:29.312Z,2.27
2017-08-19T08:25:56.781Z,2.60
2017-08-19T08:28:24.251Z,3.40
2017-08-19T08:30:51.710Z,2.70
2017-08-19T08:33:19.190Z,2.80
2017-08-19T08:35:46.642Z,2.57
2017-08-19T08:38:14.134Z,2.63
2017-08-19T08:40:41.589Z,2.33
2017-08-19T08:43:09.049Z,2.20
2017-08-19T08:45:36.531Z,2.53
2017-08-19T08:48:03.985Z,2.30
2017-08-19T08:50:31.464Z,2.03
2017-08-19T08:52:58.928Z,2.37
2017-08-19T08:55:26.396Z,2.57
2017-08-19T08:57:53.850Z,2.63
2017-08-19T09:00:21.337Z,2.20
2017-08-19T09:02:48.797Z,2.30
2017-08-19T09:05:16.271Z,2.10
2017-08-19T09:07:43.739Z,2.50
2017-08-19T09:10:11.213Z,3.40
2017-08-19T09:12:38.685Z,2.20
2017-08-19T09:15:06.148Z,2.00
2017-08-19T09:17:33.603Z,1.70
2017-08-19T09:20:01.070Z,1.67
2017-08-19T09:22:28.539Z,1.90
2017-08-19T09:24:56.015Z,1.40
2017-08-19T09:27:23.588Z,2.07
2017-08-19T09:29:51.085Z,1.60
2017-08-19T09:32:18.568Z,2.00
2017-08-19T09:34:46.040Z,1.80
2017-08-19T09:37:13.536Z,1.80
2017-08-19T09:39:40.995Z,1.60
2017-08-19T09:42:08.472Z,2.20
2017-08-19T09:44:35.953Z,1.40
2017-08-19T09:47:03.424Z,1.77
2017-08-19T09:49:30.883Z,1.37
2017-08-19T09:51:58.352Z,1.57
2017-08-19T09:54:25.806Z,1.30
2017-08-19T09:56:53.271Z,1.23
2017-08-19T09:59:20.737Z,1.50
2017-08-19T10:01:48.214Z,2.87
2017-08-19T10:04:15.674Z,1.23
2017-08-19T10:06:43.139Z,1.50
2017-08-19T10:09:22.331Z,1.27
2017-08-19T10:11:49.812Z,1.40
2017-08-19T10:14:17.267Z,1.60
2017-08-19T10:16:44.732Z,2.00
2017-08-19T10:19:12.193Z,2.20
2017-08-19T10:21:39.658Z,1.10
2017-08-19T10:24:07.119Z,1.50
2017-08-19T10:26:34.583Z,1.27
2017-08-19T10:29:02.069Z,1.70
2017-08-19T10:31:29.555Z,1.70
2017-08-19T10:33:57.039Z,1.67
2017-08-19T10:36:24.495Z,1.77
2017-08-19T10:38:51.967Z,1.40
2017-08-19T10:41:19.431Z,1.50
2017-08-19T10:43:46.901Z,1.90
2017-08-19T10:46:14.363Z,1.43
2017-08-19T10:48:41.837Z,1.80
2017-08-19T10:51:09.295Z,1.83
2017-08-19T10:53:36.764Z,1.33
2017-08-19T10:56:04.228Z,1.40
2017-08-19T10:58:31.707Z,1.57
2017-08-19T11:00:59.155Z,1.57
2017-08-19T11:03:26.621Z,1.60
2017-08-19T11:05:54.082Z,1.47
2017-08-19T11:08:21.590Z,1.33
2017-08-19T11:10:49.063Z,1.53
2017-08-19T11:13:16.535Z,1.50
2017-08-19T11:15:43.997Z,1.67
2017-08-19T11:18:11.460Z,1.73
2017-08-19T11:20:38.925Z,2.00
2017-08-19T11:23:06.392Z,1.80
2017-08-19T11:25:33.910Z,1.70
2017-08-19T11:28:01.383Z,2.30
2017-08-19T11:30:28.866Z,2.00
2017-08-19T11:32:56.335Z,1.20
2017-08-19T11:35:23.815Z,2.00
2017-08-19T11:37:51.268Z,1.30
2017-08-19T11:40:18.770Z,1.50
2017-08-19T11:42:46.211Z,1.80
2017-08-19T11:45:13.671Z,1.80
2017-08-19T11:47:41.128Z,1.83
2017-08-19T11:50:08.610Z,1.97
2017-08-19T11:52:36.078Z,1.50
2017-08-19T11:55:03.551Z,1.93
2017-08-19T12:00:23.897Z,2.20
2017-08-19T12:02:51.352Z,1.63
2017-08-19T12:05:18.823Z,2.00
2017-08-19T12:07:46.282Z,1.70
2017-08-19T12:10:13.773Z,1.50
2017-08-19T12:12:41.236Z,1.30
2017-08-19T12:15:08.697Z,1.97
2017-08-19T12:17:36.160Z,2.33
2017-08-19T12:20:03.619Z,1.30
2017-08-19T12:22:31.102Z,1.80
2017-08-19T12:24:58.555Z,1.63
2017-08-19T12:27:26.022Z,1.87
2017-08-19T12:29:53.490Z,1.50
2017-08-19T12:32:20.968Z,2.53
2017-08-19T12:34:48.436Z,1.50
2017-08-19T12:37:15.900Z,1.90
2017-08-19T12:39:43.359Z,1.80
2017-08-19T12:42:10.828Z,2.27
2017-08-19T12:44:38.306Z,1.90
2017-08-19T12:47:05.777Z,2.10
2017-08-19T12:49:33.240Z,1.37
2017-08-19T12:52:00.711Z,1.70
2017-08-19T12:54:28.180Z,1.90
2017-08-19T12:56:55.656Z,1.97
2017-08-19T12:59:23.123Z,1.53
2017-08-19T13:01:50.616Z,1.60
2017-08-19T13:04:18.082Z,2.57
2017-08-19T13:06:45.542Z,2.40
2017-08-19T13:09:13.011Z,1.73
2017-08-19T13:11:40.473Z,2.50
2017-08-19T13:14:07.946Z,1.90
2017-08-19T13:16:35.407Z,1.80
2017-08-19T13:19:02.875Z,2.27
2017-08-19T13:21:30.339Z,1.20
2017-08-19T13:23:57.807Z,1.87
2017-08-19T13:26:25.267Z,1.30
2017-08-19T13:28:52.744Z,1.90
2017-08-19T13:31:20.211Z,2.00
2017-08-19T13:33:47.676Z,1.30
2017-08-19T13:36:15.136Z,1.67
2017-08-19T13:38:42.619Z,1.70
2017-08-19T13:41:10.091Z,1.63
2017-08-19T13:43:37.566Z,1.70
2017-08-19T13:46:05.032Z,1.90
2017-08-19T13:48:32.508Z,2.07
2017-08-19T13:50:59.981Z,1.87
2017-08-19T13:53:27.447Z,1.57
2017-08-19T13:55:54.912Z,2.20
2017-08-19T13:58:22.387Z,1.50
2017-08-19T14:00:49.875Z,1.73
2017-08-19T14:03:17.343Z,1.87
2017-08-19T14:05:44.799Z,2.07
2017-08-19T14:08:12.279Z,1.93
2017-08-19T14:10:39.735Z,1.53
2017-08-19T14:13:07.196Z,1.77
2017-08-19T14:15:34.660Z,2.93
2017-08-19T14:18:02.157Z,1.47
2017-08-19T14:20:29.622Z,1.90
2017-08-19T14:22:57.080Z,2.47
2017-08-19T14:25:24.552Z,1.80
2017-08-19T14:27:52.016Z,2.20
2017-08-19T14:30:19.482Z,1.83
2017-08-19T14:32:46.952Z,2.53
2017-08-19T14:35:14.428Z,2.03
2017-08-19T14:37:41.895Z,2.20
2017-08-19T14:40:09.363Z,2.03
2017-08-19T14:42:36.822Z,1.87
2017-08-19T14:45:04.292Z,3.07
2017-08-19T14:47:31.754Z,2.67
2017-08-19T14:49:59.233Z,2.03
2017-08-19T14:52:26.695Z,1.70
2017-08-19T14:54:54.164Z,2.43
2017-08-19T14:57:21.631Z,1.83
2017-08-19T14:59:49.102Z,1.70
2017-08-19T15:02:16.576Z,2.00
2017-08-19T15:04:44.050Z,1.53
2017-08-19T15:07:11.510Z,1.40
2017-08-19T15:09:38.971Z,2.10
2017-08-19T15:12:06.444Z,1.70
2017-08-19T15:14:33.907Z,1.83
2017-08-19T15:17:01.380Z,1.63
2017-08-19T15:19:28.849Z,1.40
2017-08-19T15:21:56.315Z,1.77
2017-08-19T15:24:23.795Z,1.60
2017-08-19T15:26:51.258Z,1.80
2017-08-19T15:29:18.720Z,1.77
2017-08-19T15:31:46.204Z,1.53
2017-08-19T15:34:13.676Z,2.00
2017-08-19T15:36:41.152Z,1.53
2017-08-19T15:39:08.612Z,2.23
2017-08-19T15:41:36.083Z,2.00
2017-08-19T15:44:03.551Z,1.73
2017-08-19T15:46:31.051Z,2.00
2017-08-19T15:48:58.513Z,1.30
2017-08-19T15:51:25.975Z,1.57
2017-08-19T15:53:53.430Z,2.53
2017-08-19T15:56:20.904Z,1.90
2017-08-19T15:58:48.368Z,1.47
2017-08-19T16:01:15.835Z,1.40
2017-08-19T16:03:43.296Z,1.60
2017-08-19T16:06:10.779Z,1.83
2017-08-19T16:08:38.252Z,1.70
2017-08-19T16:11:05.715Z,1.80
2017-08-19T16:13:33.194Z,1.50
2017-08-19T16:16:00.659Z,1.73
2017-08-19T16:18:28.127Z,1.63
2017-08-19T16:20:55.584Z,1.23
2017-08-19T16:23:23.062Z,1.73
2017-08-19T16:25:50.525Z,1.37
2017-08-19T16:28:18.339Z,1.80
2017-08-19T16:30:45.800Z,1.80
2017-08-19T16:33:13.264Z,1.37
2017-08-19T16:35:40.778Z,2.00
2017-08-19T16:38:08.244Z,2.30
2017-08-19T16:40:35.720Z,1.83
2017-08-19T16:43:03.179Z,1.47
2017-08-19T16:45:30.648Z,1.70
2017-08-19T16:47:58.113Z,1.20
2017-08-19T16:50:25.576Z,2.00
2017-08-19T16:52:53.041Z,1.23
2017-08-19T16:55:20.511Z,2.07
2017-08-19T16:57:48.019Z,1.90
2017-08-19T17:00:15.488Z,1.70
2017-08-19T17:02:42.953Z,1.77
2017-08-19T17:05:10.415Z,1.87
2017-08-19T17:07:37.879Z,1.87
2017-08-19T17:10:05.360Z,1.70
2017-08-19T17:12:32.832Z,1.83
2017-08-19T17:15:00.320Z,1.50
2017-08-19T17:17:27.782Z,1.80
2017-08-19T17:19:55.247Z,2.27
2017-08-19T17:22:22.736Z,1.60
2017-08-19T17:24:50.213Z,1.90
2017-08-19T17:27:17.686Z,1.93
2017-08-19T17:29:45.144Z,2.07
2017-08-19T17:32:12.623Z,1.90
2017-08-19T17:34:40.087Z,2.07
2017-08-19T17:37:07.561Z,2.40
2017-08-19T17:39:35.030Z,3.10
2017-08-19T17:42:02.526Z,3.37
2017-08-19T17:44:29.992Z,4.70
2017-08-19T17:46:57.469Z,4.80
2017-08-19T17:49:24.922Z,2.77
2017-08-19T17:51:52.390Z,3.97
2017-08-19T17:54:19.859Z,2.60
2017-08-19T17:56:47.322Z,3.93
2017-08-19T17:59:14.788Z,3.10
2017-08-19T18:01:42.251Z,3.50
2017-08-19T18:04:09.728Z,3.50
2017-08-19T18:06:37.198Z,3.23
2017-08-19T18:09:04.659Z,3.87
2017-08-19T18:11:32.134Z,4.07
2017-08-19T18:13:59.583Z,4.40
2017-08-19T18:16:27.061Z,3.87
2017-08-19T18:18:54.536Z,3.63
2017-08-19T18:21:22.011Z,5.00
2017-08-19T18:23:49.476Z,3.90
2017-08-19T18:26:16.950Z,4.13
2017-08-19T18:28:44.403Z,3.93
2017-08-19T18:31:11.879Z,3.87
2017-08-19T18:33:39.345Z,3.70
2017-08-19T18:36:06.808Z,3.73
2017-08-19T18:38:34.282Z,4.10
2017-08-19T18:41:01.731Z,3.83
2017-08-19T18:43:29.201Z,4.90
2017-08-19T18:45:56.656Z,4.20
2017-08-19T18:48:24.127Z,4.30
2017-08-19T18:50:51.612Z,5.00
2017-08-19T18:53:19.080Z,4.43
2017-08-19T18:55:46.546Z,4.07
2017-08-19T18:58:14.025Z,4.13
2017-08-19T19:00:41.479Z,4.00
2017-08-19T19:03:08.954Z,4.03
2017-08-19T19:05:36.456Z,3.10
2017-08-19T19:08:03.927Z,3.80
2017-08-19T19:10:31.394Z,3.20
2017-08-19T19:12:58.871Z,3.57
2017-08-19T19:15:26.330Z,3.30
2017-08-19T19:17:53.800Z,2.70
2017-08-19T19:20:21.266Z,3.30
2017-08-19T19:22:48.739Z,2.83
2017-08-19T19:25:16.207Z,3.00
2017-08-19T19:27:43.684Z,2.90
2017-08-19T19:30:11.143Z,2.60
2017-08-19T19:32:38.619Z,2.03
2017-08-19T19:35:06.083Z,2.50
2017-08-19T19:37:33.551Z,2.30
2017-08-19T19:40:03.082Z,2.73
2017-08-19T19:42:30.558Z,2.23
2017-08-19T19:44:58.338Z,2.37
2017-08-19T19:47:25.826Z,2.53
2017-08-19T19:49:53.275Z,1.93
2017-08-19T19:52:20.752Z,2.10
2017-08-19T19:54:48.222Z,2.70
2017-08-19T19:57:15.689Z,2.20
2017-08-19T19:59:43.161Z,2.37
2017-08-19T20:02:10.611Z,2.67
2017-08-19T20:04:38.084Z,2.20
2017-08-19T20:07:05.549Z,2.47
2017-08-19T20:09:33.008Z,2.80
2017-08-19T20:12:00.480Z,1.87
2017-08-19T20:14:27.949Z,2.20
2017-08-19T20:16:55.408Z,2.40
2017-08-19T20:19:22.873Z,2.17
2017-08-19T20:21:50.335Z,2.47
2017-08-19T20:24:17.820Z,2.90
2017-08-19T20:26:45.292Z,2.77
2017-08-19T20:29:12.769Z,3.20
2017-08-19T20:31:40.232Z,3.20
2017-08-19T20:34:07.708Z,3.20
2017-08-19T20:36:35.169Z,2.57
2017-08-19T20:39:02.638Z,2.70
2017-08-19T20:41:30.087Z,3.50
2017-08-19T20:43:57.573Z,3.10
2017-08-19T20:46:25.027Z,3.47
2017-08-19T20:48:52.509Z,3.23
2017-08-19T20:51:19.991Z,3.10
2017-08-19T20:53:47.476Z,3.43
2017-08-19T20:56:14.934Z,2.93
2017-08-19T20:58:42.401Z,2.83
2017-08-19T21:01:09.877Z,3.03
2017-08-19T21:03:37.339Z,3.10
2017-08-19T21:06:04.812Z,3.53
2017-08-19T21:08:32.288Z,2.87
2017-08-19T21:10:59.767Z,3.40
2017-08-19T21:13:27.235Z,4.00
2017-08-19T21:15:54.712Z,3.33
2017-08-19T21:18:22.183Z,3.40
2017-08-19T21:20:49.652Z,2.73
2017-08-19T21:23:17.111Z,3.70
2017-08-19T21:25:44.587Z,3.20
2017-08-19T21:28:12.047Z,2.90
2017-08-19T21:30:39.522Z,3.40
2017-08-19T21:33:06.979Z,4.43
2017-08-19T21:35:34.454Z,3.27
2017-08-19T21:38:01.920Z,3.00
2017-08-19T21:40:29.387Z,2.50
2017-08-19T21:42:56.864Z,2.83
2017-08-19T21:45:24.324Z,2.17
2017-08-19T21:47:51.795Z,2.60
2017-08-19T21:50:19.251Z,2.97
2017-08-19T21:52:46.724Z,2.70
2017-08-19T21:55:14.183Z,2.30
2017-08-19T21:57:41.650Z,2.20
2017-08-19T22:00:09.103Z,2.50
2017-08-19T22:02:37.380Z,2.33
2017-08-19T22:05:04.846Z,2.90
2017-08-19T22:07:32.316Z,2.83
2017-08-19T22:09:59.784Z,2.60
2017-08-19T22:12:27.432Z,3.13
2017-08-19T22:14:54.891Z,2.70
2017-08-19T22:17:22.369Z,3.30
2017-08-19T22:19:49.879Z,3.13
2017-08-19T22:22:17.333Z,2.63
2017-08-19T22:24:44.803Z,3.13
2017-08-19T22:27:12.258Z,2.80
2017-08-19T22:29:39.724Z,2.93
2017-08-19T22:32:07.203Z,2.90
2017-08-19T22:34:34.675Z,3.33
2017-08-19T22:37:02.158Z,3.43
2017-08-19T22:39:29.631Z,3.17
2017-08-19T22:41:57.096Z,2.97
2017-08-19T22:44:24.563Z,3.80
2017-08-19T22:46:52.030Z,3.80
2017-08-19T22:49:19.500Z,3.50
2017-08-19T22:51:46.967Z,4.13
2017-08-19T22:54:14.435Z,3.90
2017-08-19T22:56:41.895Z,3.60
2017-08-19T22:59:09.363Z,3.90
2017-08-19T23:01:37.352Z,4.30
2017-08-19T23:04:04.820Z,4.40
2017-08-19T23:06:32.276Z,3.90
2017-08-19T23:08:59.748Z,5.30
2017-08-19T23:11:27.215Z,4.23
2017-08-19T23:13:54.682Z,4.70
2017-08-19T23:16:22.160Z,5.20
2017-08-19T23:18:49.623Z,5.33
2017-08-19T23:21:17.097Z,4.23
2017-08-19T23:23:44.559Z,4.40
2017-08-19T23:26:12.032Z,4.63
2017-08-19T23:28:39.487Z,4.77
2017-08-19T23:31:06.958Z,4.00
2017-08-19T23:33:34.419Z,4.10
2017-08-19T23:36:01.919Z,4.47
2017-08-19T23:38:29.388Z,4.30
2017-08-19T23:40:56.856Z,3.77
2017-08-19T23:43:24.327Z,4.60
2017-08-19T23:45:51.795Z,4.37
2017-08-19T23:48:19.247Z,4.23
2017-08-19T23:50:46.720Z,3.70
2017-08-19T23:53:14.184Z,3.90
2017-08-19T23:55:41.652Z,7.20
2017-08-19T23:58:09.106Z,6.77
